sensor_id;sensor_type;location;lat;lon;timestamp;P1;durP1;ratioP1;P2;durP2;ratioP2
13425;SDS011;6785;57.918;12.530;2023-12-20T00:02:16;16.33;;;3.87;;
13425;SDS011;6785;57.918;12.530;2023-12-20T00:04:44;17.03;;;2.90;;
13425;SDS011;6785;57.918;12.530;2023-12-20T00:07:11;15.97;;;2.93;;
13425;SDS011;6785;57.918;12.530;2023-12-20T00:09:38;24.23;;;3.43;;
13425;SDS011;6785;57.918;12.530;2023-12-20T00:12:05;17.17;;;3.97;;
13425;SDS011;6785;57.918;12.530;2023-12-20T00:14:33;16.97;;;3.60;;
13425;SDS011;6785;57.918;12.530;2023-12-20T00:17:00;15.43;;;3.27;;
13425;SDS011;6785;57.918;12.530;2023-12-20T00:19:27;17.33;;;3.43;;
13425;SDS011;6785;57.918;12.530;2023-12-20T00:21:55;17.73;;;2.93;;
13425;SDS011;6785;57.918;12.530;2023-12-20T00:24:24;17.80;;;3.40;;
13425;SDS011;6785;57.918;12.530;2023-12-20T00:26:51;12.33;;;2.90;;
13425;SDS011;6785;57.918;12.530;2023-12-20T00:29:18;19.50;;;3.27;;
13425;SDS011;6785;57.918;12.530;2023-12-20T00:31:45;19.97;;;2.87;;
13425;SDS011;6785;57.918;12.530;2023-12-20T00:34:12;13.40;;;3.03;;
13425;SDS011;6785;57.918;12.530;2023-12-20T00:36:39;12.00;;;2.63;;
13425;SDS011;6785;57.918;12.530;2023-12-20T00:39:08;10.03;;;2.40;;
13425;SDS011;6785;57.918;12.530;2023-12-20T00:41:35;8.90;;;2.60;;
13425;SDS011;6785;57.918;12.530;2023-12-20T00:44:02;10.47;;;2.90;;
13425;SDS011;6785;57.918;12.530;2023-12-20T00:46:29;17.33;;;3.07;;
13425;SDS011;6785;57.918;12.530;2023-12-20T00:48:56;16.67;;;2.77;;
13425;SDS011;6785;57.918;12.530;2023-12-20T00:51:23;16.73;;;3.33;;
13425;SDS011;6785;57.918;12.530;2023-12-20T00:53:50;16.33;;;2.77;;
13425;SDS011;6785;57.918;12.530;2023-12-20T00:56:21;15.20;;;3.37;;
13425;SDS011;6785;57.918;12.530;2023-12-20T00:58:48;10.30;;;2.90;;
13425;SDS011;6785;57.918;12.530;2023-12-20T01:01:15;16.23;;;3.33;;
13425;SDS011;6785;57.918;12.530;2023-12-20T01:03:42;16.77;;;3.37;;
13425;SDS011;6785;57.918;12.530;2023-12-20T01:06:09;13.63;;;2.90;;
13425;SDS011;6785;57.918;12.530;2023-12-20T01:08:37;12.67;;;3.10;;
13425;SDS011;6785;57.918;12.530;2023-12-20T01:11:04;21.00;;;3.73;;
13425;SDS011;6785;57.918;12.530;2023-12-20T01:13:33;20.77;;;4.43;;
13425;SDS011;6785;57.918;12.530;2023-12-20T01:16:01;15.37;;;3.13;;
13425;SDS011;6785;57.918;12.530;2023-12-20T01:18:29;18.07;;;3.63;;
13425;SDS011;6785;57.918;12.530;2023-12-20T01:21:00;7.53;;;2.73;;
13425;SDS011;6785;57.918;12.530;2023-12-20T01:23:29;17.20;;;3.40;;
13425;SDS011;6785;57.918;12.530;2023-12-20T01:25:56;20.77;;;3.67;;
13425;SDS011;6785;57.918;12.530;2023-12-20T01:28:24;24.47;;;4.77;;
13425;SDS011;6785;57.918;12.530;2023-12-20T01:30:53;15.40;;;3.33;;
13425;SDS011;6785;57.918;12.530;2023-12-20T01:33:21;21.83;;;4.17;;
13425;SDS011;6785;57.918;12.530;2023-12-20T01:35:47;18.93;;;3.77;;
13425;SDS011;6785;57.918;12.530;2023-12-20T01:38:14;17.07;;;3.40;;
13425;SDS011;6785;57.918;12.530;2023-12-20T01:40:43;19.00;;;4.20;;
13425;SDS011;6785;57.918;12.530;2023-12-20T01:43:10;17.07;;;3.87;;
13425;SDS011;6785;57.918;12.530;2023-12-20T01:45:37;20.50;;;3.93;;
13425;SDS011;6785;57.918;12.530;2023-12-20T01:48:07;22.30;;;3.93;;
13425;SDS011;6785;57.918;12.530;2023-12-20T01:50:36;23.70;;;4.07;;
13425;SDS011;6785;57.918;12.530;2023-12-20T01:53:03;20.57;;;4.83;;
13425;SDS011;6785;57.918;12.530;2023-12-20T01:55:34;22.37;;;4.33;;
13425;SDS011;6785;57.918;12.530;2023-12-20T01:58:04;19.03;;;3.73;;
13425;SDS011;6785;57.918;12.530;2023-12-20T02:00:31;14.27;;;4.10;;
13425;SDS011;6785;57.918;12.530;2023-12-20T02:03:00;19.93;;;3.20;;
13425;SDS011;6785;57.918;12.530;2023-12-20T02:05:30;20.17;;;3.57;;
13425;SDS011;6785;57.918;12.530;2023-12-20T02:07:57;12.33;;;3.20;;
13425;SDS011;6785;57.918;12.530;2023-12-20T02:10:25;17.23;;;3.63;;
13425;SDS011;6785;57.918;12.530;2023-12-20T02:12:52;18.97;;;3.13;;
13425;SDS011;6785;57.918;12.530;2023-12-20T02:15:19;16.57;;;3.93;;
13425;SDS011;6785;57.918;12.530;2023-12-20T02:17:46;22.03;;;4.70;;
13425;SDS011;6785;57.918;12.530;2023-12-20T02:20:14;14.13;;;3.37;;
13425;SDS011;6785;57.918;12.530;2023-12-20T02:22:42;15.77;;;3.63;;
13425;SDS011;6785;57.918;12.530;2023-12-20T02:25:09;15.80;;;3.47;;
13425;SDS011;6785;57.918;12.530;2023-12-20T02:27:36;15.70;;;3.10;;
13425;SDS011;6785;57.918;12.530;2023-12-20T02:30:05;14.07;;;3.10;;
13425;SDS011;6785;57.918;12.530;2023-12-20T02:32:33;16.27;;;3.20;;
13425;SDS011;6785;57.918;12.530;2023-12-20T02:35:00;16.17;;;3.10;;
13425;SDS011;6785;57.918;12.530;2023-12-20T02:37:27;20.50;;;3.40;;
13425;SDS011;6785;57.918;12.530;2023-12-20T02:39:55;12.87;;;3.00;;
13425;SDS011;6785;57.918;12.530;2023-12-20T02:42:22;21.00;;;3.27;;
13425;SDS011;6785;57.918;12.530;2023-12-20T02:44:49;13.53;;;3.10;;
13425;SDS011;6785;57.918;12.530;2023-12-20T02:47:16;15.00;;;3.10;;
13425;SDS011;6785;57.918;12.530;2023-12-20T02:49:43;17.00;;;3.13;;
13425;SDS011;6785;57.918;12.530;2023-12-20T02:52:10;18.67;;;2.90;;
13425;SDS011;6785;57.918;12.530;2023-12-20T02:54:37;13.83;;;2.93;;
13425;SDS011;6785;57.918;12.530;2023-12-20T02:57:05;17.53;;;3.20;;
13425;SDS011;6785;57.918;12.530;2023-12-20T02:59:32;20.83;;;3.10;;
13425;SDS011;6785;57.918;12.530;2023-12-20T03:01:59;13.70;;;3.03;;
13425;SDS011;6785;57.918;12.530;2023-12-20T03:04:26;15.27;;;3.07;;
13425;SDS011;6785;57.918;12.530;2023-12-20T03:06:53;19.90;;;3.80;;
13425;SDS011;6785;57.918;12.530;2023-12-20T03:09:20;18.90;;;3.37;;
13425;SDS011;6785;57.918;12.530;2023-12-20T03:11:47;17.03;;;3.70;;
13425;SDS011;6785;57.918;12.530;2023-12-20T03:14:16;17.53;;;3.63;;
13425;SDS011;6785;57.918;12.530;2023-12-20T03:16:46;9.47;;;2.97;;
13425;SDS011;6785;57.918;12.530;2023-12-20T03:19:13;17.17;;;3.03;;
13425;SDS011;6785;57.918;12.530;2023-12-20T03:21:41;20.23;;;3.53;;
13425;SDS011;6785;57.918;12.530;2023-12-20T03:24:08;10.83;;;2.63;;
13425;SDS011;6785;57.918;12.530;2023-12-20T03:26:35;10.33;;;2.90;;
13425;SDS011;6785;57.918;12.530;2023-12-20T03:29:02;8.97;;;3.13;;
13425;SDS011;6785;57.918;12.530;2023-12-20T03:31:31;11.80;;;2.53;;
13425;SDS011;6785;57.918;12.530;2023-12-20T03:33:58;11.30;;;3.00;;
13425;SDS011;6785;57.918;12.530;2023-12-20T03:36:25;11.07;;;3.13;;
13425;SDS011;6785;57.918;12.530;2023-12-20T03:38:52;12.17;;;2.83;;
13425;SDS011;6785;57.918;12.530;2023-12-20T03:41:19;20.23;;;3.93;;
13425;SDS011;6785;57.918;12.530;2023-12-20T03:43:46;11.27;;;3.07;;
13425;SDS011;6785;57.918;12.530;2023-12-20T03:46:13;12.50;;;3.60;;
13425;SDS011;6785;57.918;12.530;2023-12-20T03:48:42;15.13;;;3.23;;
13425;SDS011;6785;57.918;12.530;2023-12-20T03:51:09;8.43;;;3.70;;
13425;SDS011;6785;57.918;12.530;2023-12-20T03:53:36;12.80;;;2.70;;
13425;SDS011;6785;57.918;12.530;2023-12-20T03:56:04;12.60;;;2.70;;
13425;SDS011;6785;57.918;12.530;2023-12-20T03:58:32;13.47;;;2.70;;
13425;SDS011;6785;57.918;12.530;2023-12-20T04:00:59;9.47;;;2.13;;
13425;SDS011;6785;57.918;12.530;2023-12-20T04:03:27;11.53;;;2.80;;
13425;SDS011;6785;57.918;12.530;2023-12-20T04:05:56;8.23;;;2.30;;
13425;SDS011;6785;57.918;12.530;2023-12-20T04:08:23;14.17;;;2.83;;
13425;SDS011;6785;57.918;12.530;2023-12-20T04:10:50;14.53;;;2.27;;
13425;SDS011;6785;57.918;12.530;2023-12-20T04:13:17;9.47;;;2.10;;
13425;SDS011;6785;57.918;12.530;2023-12-20T04:15:44;7.77;;;1.93;;
13425;SDS011;6785;57.918;12.530;2023-12-20T04:18:11;8.00;;;1.80;;
13425;SDS011;6785;57.918;12.530;2023-12-20T04:20:37;8.23;;;1.90;;
13425;SDS011;6785;57.918;12.530;2023-12-20T04:23:06;8.37;;;1.80;;
13425;SDS011;6785;57.918;12.530;2023-12-20T04:25:33;5.87;;;1.60;;
13425;SDS011;6785;57.918;12.530;2023-12-20T04:28:00;8.40;;;1.73;;
13425;SDS011;6785;57.918;12.530;2023-12-20T04:30:27;5.20;;;1.40;;
13425;SDS011;6785;57.918;12.530;2023-12-20T04:32:54;5.47;;;1.90;;
13425;SDS011;6785;57.918;12.530;2023-12-20T04:35:22;7.67;;;1.47;;
13425;SDS011;6785;57.918;12.530;2023-12-20T04:37:49;3.17;;;1.83;;
13425;SDS011;6785;57.918;12.530;2023-12-20T04:40:17;7.20;;;1.80;;
13425;SDS011;6785;57.918;12.530;2023-12-20T04:42:45;11.43;;;2.07;;
13425;SDS011;6785;57.918;12.530;2023-12-20T04:45:12;6.27;;;1.80;;
13425;SDS011;6785;57.918;12.530;2023-12-20T04:47:41;9.17;;;1.50;;
13425;SDS011;6785;57.918;12.530;2023-12-20T04:50:08;2.67;;;1.93;;
13425;SDS011;6785;57.918;12.530;2023-12-20T04:52:36;8.60;;;1.80;;
13425;SDS011;6785;57.918;12.530;2023-12-20T04:55:03;6.53;;;1.60;;
13425;SDS011;6785;57.918;12.530;2023-12-20T04:57:32;5.37;;;1.37;;
13425;SDS011;6785;57.918;12.530;2023-12-20T04:59:59;5.83;;;1.77;;
13425;SDS011;6785;57.918;12.530;2023-12-20T05:02:27;10.63;;;1.83;;
13425;SDS011;6785;57.918;12.530;2023-12-20T05:04:54;5.03;;;1.67;;
13425;SDS011;6785;57.918;12.530;2023-12-20T05:07:21;3.60;;;1.43;;
13425;SDS011;6785;57.918;12.530;2023-12-20T05:09:48;5.23;;;1.30;;
13425;SDS011;6785;57.918;12.530;2023-12-20T05:12:15;3.97;;;1.30;;
13425;SDS011;6785;57.918;12.530;2023-12-20T05:14:44;4.90;;;1.37;;
13425;SDS011;6785;57.918;12.530;2023-12-20T05:17:11;8.30;;;1.40;;
13425;SDS011;6785;57.918;12.530;2023-12-20T05:19:38;2.00;;;1.27;;
13425;SDS011;6785;57.918;12.530;2023-12-20T05:22:05;4.73;;;1.60;;
13425;SDS011;6785;57.918;12.530;2023-12-20T05:24:32;5.70;;;1.60;;
13425;SDS011;6785;57.918;12.530;2023-12-20T05:26:59;2.60;;;1.50;;
13425;SDS011;6785;57.918;12.530;2023-12-20T05:29:25;6.53;;;1.60;;
13425;SDS011;6785;57.918;12.530;2023-12-20T05:31:54;4.37;;;1.73;;
13425;SDS011;6785;57.918;12.530;2023-12-20T05:34:21;5.63;;;1.60;;
13425;SDS011;6785;57.918;12.530;2023-12-20T05:36:48;6.60;;;2.10;;
13425;SDS011;6785;57.918;12.530;2023-12-20T05:39:15;4.70;;;1.90;;
13425;SDS011;6785;57.918;12.530;2023-12-20T05:41:42;8.93;;;2.73;;
13425;SDS011;6785;57.918;12.530;2023-12-20T05:44:12;6.07;;;1.50;;
13425;SDS011;6785;57.918;12.530;2023-12-20T05:46:39;13.23;;;2.37;;
13425;SDS011;6785;57.918;12.530;2023-12-20T05:49:07;8.27;;;2.27;;
13425;SDS011;6785;57.918;12.530;2023-12-20T05:51:34;6.87;;;1.70;;
13425;SDS011;6785;57.918;12.530;2023-12-20T05:54:01;11.70;;;2.90;;
13425;SDS011;6785;57.918;12.530;2023-12-20T05:56:29;12.17;;;2.43;;
13425;SDS011;6785;57.918;12.530;2023-12-20T05:58:56;10.10;;;2.00;;
13425;SDS011;6785;57.918;12.530;2023-12-20T06:01:23;9.47;;;2.23;;
13425;SDS011;6785;57.918;12.530;2023-12-20T06:03:50;8.20;;;2.23;;
13425;SDS011;6785;57.918;12.530;2023-12-20T06:06:19;10.00;;;2.43;;
13425;SDS011;6785;57.918;12.530;2023-12-20T06:08:46;17.77;;;3.03;;
13425;SDS011;6785;57.918;12.530;2023-12-20T06:11:13;18.80;;;2.33;;
13425;SDS011;6785;57.918;12.530;2023-12-20T06:13:40;17.93;;;2.67;;
13425;SDS011;6785;57.918;12.530;2023-12-20T06:16:07;15.37;;;2.83;;
13425;SDS011;6785;57.918;12.530;2023-12-20T06:18:34;8.10;;;2.40;;
13425;SDS011;6785;57.918;12.530;2023-12-20T06:21:01;11.93;;;2.07;;
13425;SDS011;6785;57.918;12.530;2023-12-20T06:23:31;15.03;;;3.40;;
13425;SDS011;6785;57.918;12.530;2023-12-20T06:25:58;14.30;;;2.90;;
13425;SDS011;6785;57.918;12.530;2023-12-20T06:28:25;14.17;;;2.77;;
13425;SDS011;6785;57.918;12.530;2023-12-20T06:30:52;13.77;;;2.80;;
13425;SDS011;6785;57.918;12.530;2023-12-20T06:33:20;12.00;;;2.60;;
13425;SDS011;6785;57.918;12.530;2023-12-20T06:35:47;10.27;;;2.50;;
13425;SDS011;6785;57.918;12.530;2023-12-20T06:38:14;11.53;;;2.20;;
13425;SDS011;6785;57.918;12.530;2023-12-20T06:40:44;10.97;;;2.40;;
13425;SDS011;6785;57.918;12.530;2023-12-20T06:43:11;17.17;;;2.43;;
13425;SDS011;6785;57.918;12.530;2023-12-20T06:45:39;7.73;;;2.37;;
13425;SDS011;6785;57.918;12.530;2023-12-20T06:48:06;7.10;;;2.13;;
13425;SDS011;6785;57.918;12.530;2023-12-20T06:50:33;8.17;;;2.13;;
13425;SDS011;6785;57.918;12.530;2023-12-20T06:53:04;14.90;;;2.53;;
13425;SDS011;6785;57.918;12.530;2023-12-20T06:55:32;12.43;;;2.30;;
13425;SDS011;6785;57.918;12.530;2023-12-20T06:58:02;9.63;;;2.67;;
13425;SDS011;6785;57.918;12.530;2023-12-20T07:00:29;10.93;;;2.27;;
13425;SDS011;6785;57.918;12.530;2023-12-20T07:02:56;15.40;;;3.10;;
13425;SDS011;6785;57.918;12.530;2023-12-20T07:05:24;14.17;;;2.63;;
13425;SDS011;6785;57.918;12.530;2023-12-20T07:07:51;8.80;;;2.20;;
13425;SDS011;6785;57.918;12.530;2023-12-20T07:10:19;11.13;;;2.53;;
13425;SDS011;6785;57.918;12.530;2023-12-20T07:12:46;8.80;;;2.17;;
13425;SDS011;6785;57.918;12.530;2023-12-20T07:15:15;9.93;;;3.33;;
13425;SDS011;6785;57.918;12.530;2023-12-20T07:17:42;9.57;;;2.30;;
13425;SDS011;6785;57.918;12.530;2023-12-20T07:20:09;15.17;;;3.47;;
13425;SDS011;6785;57.918;12.530;2023-12-20T07:22:37;18.13;;;2.90;;
13425;SDS011;6785;57.918;12.530;2023-12-20T07:25:05;8.70;;;2.13;;
13425;SDS011;6785;57.918;12.530;2023-12-20T07:27:33;8.47;;;2.03;;
13425;SDS011;6785;57.918;12.530;2023-12-20T07:30:00;11.10;;;2.37;;
13425;SDS011;6785;57.918;12.530;2023-12-20T07:32:28;14.53;;;2.80;;
13425;SDS011;6785;57.918;12.530;2023-12-20T07:34:55;17.10;;;3.47;;
13425;SDS011;6785;57.918;12.530;2023-12-20T07:37:22;11.17;;;4.33;;
13425;SDS011;6785;57.918;12.530;2023-12-20T07:39:49;14.03;;;2.93;;
13425;SDS011;6785;57.918;12.530;2023-12-20T07:42:16;9.03;;;2.43;;
13425;SDS011;6785;57.918;12.530;2023-12-20T07:44:43;16.67;;;3.10;;
13425;SDS011;6785;57.918;12.530;2023-12-20T07:47:10;16.13;;;2.13;;
13425;SDS011;6785;57.918;12.530;2023-12-20T07:49:42;20.93;;;2.93;;
13425;SDS011;6785;57.918;12.530;2023-12-20T07:52:09;20.13;;;3.00;;
13425;SDS011;6785;57.918;12.530;2023-12-20T07:54:36;13.07;;;2.37;;
13425;SDS011;6785;57.918;12.530;2023-12-20T07:57:03;20.23;;;3.27;;
13425;SDS011;6785;57.918;12.530;2023-12-20T07:59:30;12.77;;;3.40;;
13425;SDS011;6785;57.918;12.530;2023-12-20T08:01:57;17.83;;;3.10;;
13425;SDS011;6785;57.918;12.530;2023-12-20T08:04:24;14.33;;;2.97;;
13425;SDS011;6785;57.918;12.530;2023-12-20T08:06:52;14.00;;;3.27;;
13425;SDS011;6785;57.918;12.530;2023-12-20T08:09:20;19.57;;;4.40;;
13425;SDS011;6785;57.918;12.530;2023-12-20T08:11:47;23.23;;;3.50;;
13425;SDS011;6785;57.918;12.530;2023-12-20T08:14:15;17.93;;;3.17;;
13425;SDS011;6785;57.918;12.530;2023-12-20T08:16:42;19.93;;;3.60;;
13425;SDS011;6785;57.918;12.530;2023-12-20T08:19:09;16.07;;;3.17;;
13425;SDS011;6785;57.918;12.530;2023-12-20T08:21:36;19.50;;;4.73;;
13425;SDS011;6785;57.918;12.530;2023-12-20T08:24:05;15.93;;;4.07;;
13425;SDS011;6785;57.918;12.530;2023-12-20T08:26:33;13.40;;;3.30;;
13425;SDS011;6785;57.918;12.530;2023-12-20T08:29:00;15.30;;;2.80;;
13425;SDS011;6785;57.918;12.530;2023-12-20T08:31:27;14.40;;;3.77;;
13425;SDS011;6785;57.918;12.530;2023-12-20T08:33:54;19.10;;;4.53;;
13425;SDS011;6785;57.918;12.530;2023-12-20T08:36:21;10.37;;;3.30;;
13425;SDS011;6785;57.918;12.530;2023-12-20T08:38:48;9.73;;;2.67;;
13425;SDS011;6785;57.918;12.530;2023-12-20T08:41:17;12.43;;;3.00;;
13425;SDS011;6785;57.918;12.530;2023-12-20T08:43:45;12.43;;;2.70;;
13425;SDS011;6785;57.918;12.530;2023-12-20T08:46:13;17.33;;;4.07;;
13425;SDS011;6785;57.918;12.530;2023-12-20T08:48:41;14.57;;;3.10;;
13425;SDS011;6785;57.918;12.530;2023-12-20T08:51:08;24.93;;;4.27;;
13425;SDS011;6785;57.918;12.530;2023-12-20T08:53:36;21.93;;;4.10;;
13425;SDS011;6785;57.918;12.530;2023-12-20T08:56:03;25.23;;;3.80;;
13425;SDS011;6785;57.918;12.530;2023-12-20T08:58:32;17.63;;;3.30;;
13425;SDS011;6785;57.918;12.530;2023-12-20T09:01:01;15.60;;;3.13;;
13425;SDS011;6785;57.918;12.530;2023-12-20T09:03:28;12.50;;;2.67;;
13425;SDS011;6785;57.918;12.530;2023-12-20T09:05:55;18.53;;;3.23;;
13425;SDS011;6785;57.918;12.530;2023-12-20T09:08:23;18.50;;;3.20;;
13425;SDS011;6785;57.918;12.530;2023-12-20T09:10:50;17.93;;;3.47;;
13425;SDS011;6785;57.918;12.530;2023-12-20T09:13:18;10.17;;;3.40;;
13425;SDS011;6785;57.918;12.530;2023-12-20T09:15:47;13.50;;;3.27;;
13425;SDS011;6785;57.918;12.530;2023-12-20T09:18:14;23.20;;;3.80;;
13425;SDS011;6785;57.918;12.530;2023-12-20T09:20:41;19.03;;;3.33;;
13425;SDS011;6785;57.918;12.530;2023-12-20T09:23:08;19.50;;;3.93;;
13425;SDS011;6785;57.918;12.530;2023-12-20T09:25:35;23.37;;;3.83;;
13425;SDS011;6785;57.918;12.530;2023-12-20T09:28:02;23.57;;;3.80;;
13425;SDS011;6785;57.918;12.530;2023-12-20T09:30:30;23.70;;;3.93;;
13425;SDS011;6785;57.918;12.530;2023-12-20T09:32:59;14.27;;;3.30;;
13425;SDS011;6785;57.918;12.530;2023-12-20T09:35:26;15.63;;;3.77;;
13425;SDS011;6785;57.918;12.530;2023-12-20T09:37:53;22.30;;;4.17;;
13425;SDS011;6785;57.918;12.530;2023-12-20T09:40:20;23.63;;;4.63;;
13425;SDS011;6785;57.918;12.530;2023-12-20T09:42:51;27.03;;;4.40;;
13425;SDS011;6785;57.918;12.530;2023-12-20T09:45:24;15.63;;;3.60;;
13425;SDS011;6785;57.918;12.530;2023-12-20T09:47:52;18.10;;;3.90;;
13425;SDS011;6785;57.918;12.530;2023-12-20T09:50:21;28.70;;;4.93;;
13425;SDS011;6785;57.918;12.530;2023-12-20T09:52:49;15.33;;;3.83;;
13425;SDS011;6785;57.918;12.530;2023-12-20T09:55:18;24.13;;;4.27;;
13425;SDS011;6785;57.918;12.530;2023-12-20T09:57:46;18.67;;;4.80;;
13425;SDS011;6785;57.918;12.530;2023-12-20T10:00:13;25.20;;;6.13;;
13425;SDS011;6785;57.918;12.530;2023-12-20T10:02:45;21.10;;;4.67;;
13425;SDS011;6785;57.918;12.530;2023-12-20T10:05:17;17.57;;;4.93;;
13425;SDS011;6785;57.918;12.530;2023-12-20T10:07:46;19.37;;;3.83;;
13425;SDS011;6785;57.918;12.530;2023-12-20T10:10:13;21.57;;;4.57;;
13425;SDS011;6785;57.918;12.530;2023-12-20T10:12:41;19.07;;;4.63;;
13425;SDS011;6785;57.918;12.530;2023-12-20T10:15:28;29.03;;;5.30;;
13425;SDS011;6785;57.918;12.530;2023-12-20T10:17:56;16.27;;;4.47;;
13425;SDS011;6785;57.918;12.530;2023-12-20T10:20:24;20.33;;;4.50;;
13425;SDS011;6785;57.918;12.530;2023-12-20T10:22:55;26.70;;;4.83;;
13425;SDS011;6785;57.918;12.530;2023-12-20T10:25:22;16.70;;;3.97;;
13425;SDS011;6785;57.918;12.530;2023-12-20T10:27:51;24.87;;;5.37;;
13425;SDS011;6785;57.918;12.530;2023-12-20T10:30:37;18.83;;;4.20;;
13425;SDS011;6785;57.918;12.530;2023-12-20T10:33:05;24.13;;;5.27;;
13425;SDS011;6785;57.918;12.530;2023-12-20T10:35:33;19.93;;;4.13;;
13425;SDS011;6785;57.918;12.530;2023-12-20T10:38:02;23.27;;;5.57;;
13425;SDS011;6785;57.918;12.530;2023-12-20T10:40:32;22.03;;;4.80;;
13425;SDS011;6785;57.918;12.530;2023-12-20T10:43:03;26.37;;;5.27;;
13425;SDS011;6785;57.918;12.530;2023-12-20T10:45:30;18.10;;;5.50;;
13425;SDS011;6785;57.918;12.530;2023-12-20T10:47:58;23.03;;;4.47;;
13425;SDS011;6785;57.918;12.530;2023-12-20T10:50:26;19.27;;;4.50;;
13425;SDS011;6785;57.918;12.530;2023-12-20T10:52:55;23.17;;;4.27;;
13425;SDS011;6785;57.918;12.530;2023-12-20T10:55:23;15.87;;;4.37;;
13425;SDS011;6785;57.918;12.530;2023-12-20T10:57:51;25.83;;;5.37;;
13425;SDS011;6785;57.918;12.530;2023-12-20T11:00:24;22.80;;;5.20;;
13425;SDS011;6785;57.918;12.530;2023-12-20T11:02:51;18.53;;;5.87;;
13425;SDS011;6785;57.918;12.530;2023-12-20T11:05:28;21.30;;;5.03;;
13425;SDS011;6785;57.918;12.530;2023-12-20T11:08:07;23.63;;;5.93;;
13425;SDS011;6785;57.918;12.530;2023-12-20T11:10:43;21.67;;;5.87;;
13425;SDS011;6785;57.918;12.530;2023-12-20T11:13:30;22.33;;;5.93;;
13425;SDS011;6785;57.918;12.530;2023-12-20T11:16:02;19.43;;;5.07;;
13425;SDS011;6785;57.918;12.530;2023-12-20T11:18:29;24.13;;;4.60;;
13425;SDS011;6785;57.918;12.530;2023-12-20T11:21:00;19.97;;;4.60;;
13425;SDS011;6785;57.918;12.530;2023-12-20T11:23:30;23.13;;;5.57;;
13425;SDS011;6785;57.918;12.530;2023-12-20T11:26:01;20.43;;;5.07;;
13425;SDS011;6785;57.918;12.530;2023-12-20T11:28:29;20.43;;;5.30;;
13425;SDS011;6785;57.918;12.530;2023-12-20T11:30:56;25.57;;;5.27;;
13425;SDS011;6785;57.918;12.530;2023-12-20T11:33:25;22.70;;;4.60;;
13425;SDS011;6785;57.918;12.530;2023-12-20T11:35:56;25.47;;;5.80;;
13425;SDS011;6785;57.918;12.530;2023-12-20T11:38:25;22.67;;;5.13;;
13425;SDS011;6785;57.918;12.530;2023-12-20T11:40:53;21.00;;;5.23;;
13425;SDS011;6785;57.918;12.530;2023-12-20T11:43:32;18.03;;;5.13;;
13425;SDS011;6785;57.918;12.530;2023-12-20T11:46:03;26.83;;;5.07;;
13425;SDS011;6785;57.918;12.530;2023-12-20T11:48:31;19.97;;;5.13;;
13425;SDS011;6785;57.918;12.530;2023-12-20T11:51:00;25.67;;;5.20;;
13425;SDS011;6785;57.918;12.530;2023-12-20T11:53:28;16.67;;;4.73;;
13425;SDS011;6785;57.918;12.530;2023-12-20T11:55:57;29.57;;;5.90;;
13425;SDS011;6785;57.918;12.530;2023-12-20T11:58:24;12.77;;;5.17;;
13425;SDS011;6785;57.918;12.530;2023-12-20T12:00:53;21.17;;;5.53;;
13425;SDS011;6785;57.918;12.530;2023-12-20T12:03:22;18.03;;;5.63;;
13425;SDS011;6785;57.918;12.530;2023-12-20T12:05:49;19.43;;;6.10;;
13425;SDS011;6785;57.918;12.530;2023-12-20T12:08:16;16.73;;;6.93;;
13425;SDS011;6785;57.918;12.530;2023-12-20T12:10:44;22.73;;;5.87;;
13425;SDS011;6785;57.918;12.530;2023-12-20T12:13:11;12.00;;;4.70;;
13425;SDS011;6785;57.918;12.530;2023-12-20T12:15:39;19.53;;;6.00;;
13425;SDS011;6785;57.918;12.530;2023-12-20T12:18:09;21.90;;;6.23;;
13425;SDS011;6785;57.918;12.530;2023-12-20T12:20:36;15.40;;;5.57;;
13425;SDS011;6785;57.918;12.530;2023-12-20T12:23:04;15.80;;;5.07;;
13425;SDS011;6785;57.918;12.530;2023-12-20T12:25:34;22.53;;;6.30;;
13425;SDS011;6785;57.918;12.530;2023-12-20T12:28:08;24.27;;;5.30;;
13425;SDS011;6785;57.918;12.530;2023-12-20T12:30:35;14.07;;;5.20;;
13425;SDS011;6785;57.918;12.530;2023-12-20T12:33:02;10.33;;;4.67;;
13425;SDS011;6785;57.918;12.530;2023-12-20T12:35:32;15.83;;;5.50;;
13425;SDS011;6785;57.918;12.530;2023-12-20T12:37:59;14.00;;;5.40;;
13425;SDS011;6785;57.918;12.530;2023-12-20T12:40:28;16.10;;;5.13;;
13425;SDS011;6785;57.918;12.530;2023-12-20T12:43:01;15.33;;;5.90;;
13425;SDS011;6785;57.918;12.530;2023-12-20T12:45:29;20.93;;;5.63;;
13425;SDS011;6785;57.918;12.530;2023-12-20T12:47:56;12.20;;;5.10;;
13425;SDS011;6785;57.918;12.530;2023-12-20T12:50:23;11.40;;;5.03;;
13425;SDS011;6785;57.918;12.530;2023-12-20T12:52:51;14.83;;;5.53;;
13425;SDS011;6785;57.918;12.530;2023-12-20T12:55:18;18.23;;;6.13;;
13425;SDS011;6785;57.918;12.530;2023-12-20T12:57:45;11.67;;;5.63;;
13425;SDS011;6785;57.918;12.530;2023-12-20T13:00:12;12.20;;;5.13;;
13425;SDS011;6785;57.918;12.530;2023-12-20T13:02:40;18.67;;;5.90;;
13425;SDS011;6785;57.918;12.530;2023-12-20T13:05:07;15.33;;;6.20;;
13425;SDS011;6785;57.918;12.530;2023-12-20T13:07:34;12.50;;;5.13;;
13425;SDS011;6785;57.918;12.530;2023-12-20T13:10:04;14.00;;;5.20;;
13425;SDS011;6785;57.918;12.530;2023-12-20T13:12:32;12.87;;;5.10;;
13425;SDS011;6785;57.918;12.530;2023-12-20T13:14:59;10.37;;;5.33;;
13425;SDS011;6785;57.918;12.530;2023-12-20T13:17:26;19.10;;;5.57;;
13425;SDS011;6785;57.918;12.530;2023-12-20T13:19:53;14.37;;;5.13;;
13425;SDS011;6785;57.918;12.530;2023-12-20T13:22:20;13.47;;;5.60;;
13425;SDS011;6785;57.918;12.530;2023-12-20T13:24:47;15.43;;;5.40;;
13425;SDS011;6785;57.918;12.530;2023-12-20T13:27:15;13.77;;;5.90;;
13425;SDS011;6785;57.918;12.530;2023-12-20T13:29:42;14.70;;;5.20;;
13425;SDS011;6785;57.918;12.530;2023-12-20T13:32:09;14.13;;;5.77;;
13425;SDS011;6785;57.918;12.530;2023-12-20T13:34:36;14.97;;;5.93;;
13425;SDS011;6785;57.918;12.530;2023-12-20T13:37:03;12.27;;;5.77;;
13425;SDS011;6785;57.918;12.530;2023-12-20T13:39:30;10.93;;;5.10;;
13425;SDS011;6785;57.918;12.530;2023-12-20T13:41:58;17.93;;;5.23;;
13425;SDS011;6785;57.918;12.530;2023-12-20T13:44:26;11.10;;;5.63;;
13425;SDS011;6785;57.918;12.530;2023-12-20T13:46:53;15.00;;;5.97;;
13425;SDS011;6785;57.918;12.530;2023-12-20T13:49:20;8.30;;;5.20;;
13425;SDS011;6785;57.918;12.530;2023-12-20T13:51:50;13.63;;;5.67;;
13425;SDS011;6785;57.918;12.530;2023-12-20T13:54:19;13.90;;;5.87;;
13425;SDS011;6785;57.918;12.530;2023-12-20T13:56:47;15.63;;;5.60;;
13425;SDS011;6785;57.918;12.530;2023-12-20T13:59:14;10.10;;;5.30;;
13425;SDS011;6785;57.918;12.530;2023-12-20T14:01:43;15.50;;;5.60;;
13425;SDS011;6785;57.918;12.530;2023-12-20T14:04:10;15.70;;;5.93;;
13425;SDS011;6785;57.918;12.530;2023-12-20T14:06:37;13.27;;;5.50;;
13425;SDS011;6785;57.918;12.530;2023-12-20T14:09:03;13.97;;;6.20;;
13425;SDS011;6785;57.918;12.530;2023-12-20T14:11:31;15.37;;;5.50;;
13425;SDS011;6785;57.918;12.530;2023-12-20T14:13:58;17.63;;;5.93;;
13425;SDS011;6785;57.918;12.530;2023-12-20T14:16:26;16.37;;;6.10;;
13425;SDS011;6785;57.918;12.530;2023-12-20T14:18:55;14.10;;;6.03;;
13425;SDS011;6785;57.918;12.530;2023-12-20T14:21:22;11.83;;;5.73;;
13425;SDS011;6785;57.918;12.530;2023-12-20T14:23:49;15.80;;;6.50;;
13425;SDS011;6785;57.918;12.530;2023-12-20T14:26:17;13.40;;;5.97;;
13425;SDS011;6785;57.918;12.530;2023-12-20T14:28:44;14.93;;;5.33;;
13425;SDS011;6785;57.918;12.530;2023-12-20T14:31:11;13.23;;;5.97;;
13425;SDS011;6785;57.918;12.530;2023-12-20T14:33:38;14.30;;;5.77;;
13425;SDS011;6785;57.918;12.530;2023-12-20T14:36:08;15.03;;;5.80;;
13425;SDS011;6785;57.918;12.530;2023-12-20T14:38:35;12.40;;;5.40;;
13425;SDS011;6785;57.918;12.530;2023-12-20T14:41:02;14.47;;;5.17;;